Latest Weather Observations for Scone Airport

IDN60801

Issued at 8:35 am EDT Friday 28 November 2014 (issued every 30 minutes, with the page automatically refreshed every 10 minutes)

About weather observations | Map of weather stations | Latest weather observations for NSW | Other Formats
Station Details ID: 061363 Name: SCONE AIRPORT AWS Lat: -32.03 Lon: 150.83 Height: 221.4 m
Data from the previous 72 hours. | See also: Recent months at Scone Airport
Date/Time
EDT
Temp
°C
App
Temp
°C
Dew
Point
Rel
Hum
%
Delta-T
°C
Wind Press
QNH
hPa
Press
MSL
hPa
Rain
since 9 am
mm
Dir
 
Spd
km/h
Gust
km/h
Spd
kts
Gust
kts
28/08:30am 19.8 16.8 12.6 63 4.1 SE 20 28 11 15 1022.1 1021.3 0.2
28/08:00am 19.0 16.0 12.7 67 3.6 SSE 20 28 11 15 1022.0 1021.2 0.2
28/07:30am 18.1 16.2 13.0 72 2.9 SSE 15 20 8 11 1021.8 1021.0 0.2
28/07:00am 17.3 15.0 13.0 76 2.4 SSE 17 24 9 13 1021.2 1020.5 0.2
28/06:30am 16.8 14.6 13.3 80 2.0 SSE 17 20 9 11 1021.1 1020.4 0.2
28/06:00am 16.2 14.3 13.1 82 1.7 S 15 19 8 10 1020.9 1020.2 0.2
28/05:30am 15.9 14.3 12.8 82 1.7 S 13 17 7 9 1020.7 1020.0 0.2
28/05:00am 15.5 13.9 12.8 84 1.5 S 13 17 7 9 1020.3 1019.6 0.2
28/04:30am 15.1 12.6 12.4 84 1.5 S 17 20 9 11 1020.1 1019.4 0.2
28/04:00am 15.2 12.7 12.3 83 1.6 S 17 19 9 10 1020.1 1019.4 0.2
28/03:30am 15.6 13.1 12.4 81 1.8 S 17 20 9 11 1020.3 1019.6 0.2
28/03:00am 15.7 13.2 12.3 80 1.9 S 17 20 9 11 1020.4 1019.7 0.2
28/02:30am 16.6 13.6 12.6 77 2.2 SSE 20 26 11 14 1020.3 1019.6 0.2
28/02:00am 16.8 13.8 12.7 77 2.3 SSE 20 28 11 15 1020.6 1019.9 0.2
28/01:30am 16.5 13.8 12.8 79 2.1 SSE 19 22 10 12 1020.9 1020.2 0.2
28/01:00am 16.7 14.0 13.0 79 2.1 SSE 19 26 10 14 1021.2 1020.5 0.2
28/12:30am 16.7 13.8 13.0 79 2.1 SSE 20 26 11 14 1021.4 1020.6 0.2
28/12:00am 16.8 14.1 12.9 78 2.2 S 19 22 10 12 1021.6 1020.8 0.2
 
Date/Time
EDT
Temp
°C
App
Temp
°C
Dew
Point
Rel
Hum
%
Delta-T
°C
Wind Press
QNH
hPa
Press
MSL
hPa
Rain
since 9 am
mm
Dir
 
Spd
km/h
Gust
km/h
Spd
kts
Gust
kts
27/11:30pm 17.5 13.9 13.2 76 2.4 SSE 24 32 13 17 1021.8 1021.0 0.2
27/11:00pm 17.6 14.1 13.3 76 2.4 SSE 24 32 13 17 1021.7 1020.9 0.2
27/10:30pm 17.7 14.3 13.6 77 2.3 SSE 24 32 13 17 1021.6 1020.8 0.2
27/10:00pm 18.0 14.2 13.7 76 2.5 SSE 26 32 14 17 1021.5 1020.7 0.2
27/09:30pm 18.4 14.6 13.7 74 2.7 SSE 26 37 14 20 1021.2 1020.5 0.2
27/09:00pm 19.0 14.4 13.6 71 3.1 SSE 30 35 16 19 1020.9 1020.2 0.2
27/08:30pm 19.3 14.7 13.5 69 3.3 SSE 30 37 16 20 1020.7 1020.0 0.2
27/08:00pm 19.6 14.6 13.3 67 3.6 SSE 32 39 17 21 1020.4 1019.7 0.2
27/07:30pm 20.7 16.1 13.4 63 4.2 SE 30 39 16 21 1020.1 1019.4 0.2
27/07:00pm 21.2 15.8 12.9 59 4.8 SSE 33 41 18 22 1019.8 1019.1 0.2
27/06:30pm 21.9 15.3 12.5 55 5.4 SE 39 50 21 27 1019.4 1018.7 0.2
27/06:00pm 22.7 17.2 13.5 56 5.4 SE 35 50 19 27 1018.8 1018.0 0.2
27/05:30pm 23.3 17.4 13.5 54 5.7 SE 37 50 20 27 1018.6 1017.8 0.2
27/05:00pm 24.2 18.0 13.7 52 6.2 SE 39 50 21 27 1018.4 1017.6 0.2
27/04:30pm 24.4 18.1 13.6 51 6.4 SE 39 50 21 27 1018.4 1017.6 0.2
27/04:00pm 25.2 19.5 14.3 50 6.5 SSE 37 48 20 26 1018.3 1017.5 0.2
27/03:30pm 26.8 21.6 14.5 46 7.4 SE 35 46 19 25 1018.2 1017.4 0.2
27/03:00pm 26.5 21.1 13.9 45 7.5 SSE 35 50 19 27 1018.2 1017.4 0.2
27/02:30pm 26.4 21.6 13.9 46 7.5 SSE 32 44 17 24 1018.2 1017.4 0.2
27/02:00pm 25.8 20.7 13.6 47 7.2 SE 33 46 18 25 1018.3 1017.5 0.2
27/01:30pm 26.3 21.3 14.1 47 7.3 SSE 33 43 18 23 1018.5 1017.7 0.2
27/01:00pm 24.7 19.7 13.3 49 6.7 SSE 32 43 17 23 1018.6 1017.8 0.2
27/12:30pm 27.3 23.2 15.0 47 7.5 SSE 30 41 16 22 1018.8 1018.0 0.2
27/12:00pm 24.9 20.6 15.5 56 5.7 SSE 32 44 17 24 1019.1 1018.4 0.2
27/11:30am 25.0 20.5 15.0 53 6.1 SE 32 44 17 24 1019.1 1018.4 0.2
27/11:00am 24.2 19.3 15.4 58 5.3 ESE 35 46 19 25 1019.3 1018.6 0.2
27/10:30am 23.9 19.4 14.9 57 5.4 SE 32 46 17 25 1019.4 1018.7 0.2
27/10:00am 22.6 18.4 15.7 65 4.2 SE 32 46 17 25 1019.7 1019.0 0.2
27/09:30am 22.1 19.1 15.9 68 3.8 SE 26 33 14 18 1019.4 1018.7 0.2
27/09:00am 19.9 17.6 16.7 82 1.9 SE 24 32 13 17 1019.6 1018.9 4.8
27/08:30am 19.7 18.9 18.4 92 0.8 SSE 20 24 11 13 1019.3 1018.6 4.8
27/08:00am 18.8 17.3 18.5 98 0.2 SSE 24 32 13 17 1018.9 1018.1 4.8
27/07:30am 19.0 18.4 18.8 99 0.1 SSE 20 26 11 14 1018.5 1017.7 4.8
27/07:00am 18.9 18.8 18.7 99 0.1 S 17 20 9 11 1018.1 1017.3 4.8
27/06:30am 18.8 18.6 18.5 98 0.2 S 17 20 9 11 1017.7 1016.9 4.8
27/06:00am 18.6 18.7 18.3 98 0.2 S 15 19 8 10 1017.5 1016.7 4.8
27/05:30am 18.5 18.5 18.2 98 0.2 S 15 20 8 11 1017.2 1016.4 4.8
27/05:00am 18.5 18.4 17.8 96 0.4 S 15 20 8 11 1016.7 1015.9 4.8
27/04:30am 18.7 17.5 17.5 93 0.7 S 20 26 11 14 1016.4 1015.7 4.8
27/04:00am 19.4 18.2 17.0 86 1.5 S 19 24 10 13 1016.2 1015.5 4.8
27/03:30am 19.6 18.2 16.6 83 1.8 S 19 26 10 14 1016.2 1015.5 4.8
27/03:00am 19.4 19.2 16.6 84 1.7 SSE 13 17 7 9 1016.1 1015.4 4.8
27/02:30am 18.8 18.7 16.0 84 1.7 SSE 11 13 6 7 1016.2 1015.5 4.8
27/02:00am 19.5 18.8 16.3 82 1.9 S 15 20 8 11 1016.3 1015.6 4.8
27/01:30am 19.9 18.4 16.3 80 2.2 S 19 26 10 14 1016.3 1015.6 4.8
27/01:00am 20.1 18.1 16.5 80 2.2 S 22 30 12 16 1016.5 1015.8 4.8
27/12:30am 19.8 18.1 16.3 80 2.1 S 20 28 11 15 1016.5 1015.8 4.8
27/12:00am 20.1 18.0 16.3 79 2.3 S 22 28 12 15 1016.5 1015.8 4.8
 
Date/Time
EDT
Temp
°C
App
Temp
°C
Dew
Point
Rel
Hum
%
Delta-T
°C
Wind Press
QNH
hPa
Press
MSL
hPa
Rain
since 9 am
mm
Dir
 
Spd
km/h
Gust
km/h
Spd
kts
Gust
kts
26/11:30pm 20.5 18.1 16.3 77 2.6 S 24 32 13 17 1016.4 1015.7 4.8
26/11:00pm 21.1 19.1 16.5 75 2.8 S 22 32 12 17 1016.0 1015.3 4.8
26/10:30pm 21.7 19.7 16.4 72 3.2 S 22 30 12 16 1015.7 1015.0 4.8
26/10:00pm 22.5 20.1 16.5 69 3.7 S 24 30 13 16 1015.2 1014.5 4.8
26/09:30pm 23.0 21.5 16.8 68 3.8 S 20 28 11 15 1014.9 1014.1 4.8
26/09:00pm 23.4 22.0 16.9 67 4.0 S 20 24 11 13 1014.4 1013.6 4.8
26/08:30pm 24.2 23.7 17.0 64 4.5 S 15 19 8 10 1014.1 1013.3 4.8
26/08:00pm 24.6 26.4 18.8 70 3.7 W 7 9 4 5 1013.8 1013.0 4.8
26/07:30pm 25.8 27.2 18.7 65 4.6 WNW 9 11 5 6 1013.4 1012.6 4.8
26/07:00pm 27.8 29.6 18.2 56 6.2 WNW 6 13 3 7 1013.1 1012.3 4.8
26/06:30pm 29.1 29.8 16.0 45 8.2 S 7 13 4 7 1012.9 1012.1 4.8
26/06:00pm 28.5 29.4 16.7 48 7.4 S 7 15 4 8 1012.7 1011.9 4.8
26/05:30pm 28.0 28.3 17.8 54 6.5 SSE 13 20 7 11 1012.9 1012.1 4.8
26/05:00pm 27.3 28.9 19.1 61 5.3 NE 9 13 5 7 1013.0 1012.2 4.8
26/04:30pm 26.8 28.2 18.6 60 5.3 ENE 9 13 5 7 1013.3 1012.5 4.8
26/04:00pm 24.1 26.2 20.2 79 2.5 S 9 15 5 8 1013.6 1012.8 4.6
26/03:30pm 24.8 25.7 18.3 67 4.1 ESE 11 17 6 9 1013.7 1012.9 2.0
26/03:00pm 25.8 24.7 17.7 61 5.1 S 20 26 11 14 1013.7 1012.9 0.6
26/02:30pm 29.2 27.6 15.0 42 8.7 SSE 17 26 9 14 1014.2 1013.4 0.0
26/02:00pm 29.8 29.4 16.2 43 8.5 SSE 13 20 7 11 1014.6 1013.8 0.0
26/01:30pm 29.1 29.0 16.0 45 8.2 S 11 17 6 9 1015.2 1014.5 0.0
26/01:00pm 27.7 28.7 16.3 49 7.1 W 6 17 3 9 1015.8 1015.1 0.0
26/12:30pm 26.1 26.1 15.2 51 6.6 SSE 9 19 5 10 1016.4 1015.7 0.0
26/12:00pm 26.0 25.7 15.4 52 6.5 ESE 11 17 6 9 1017.1 1016.3 0.0
26/11:30am 24.5 24.6 15.4 57 5.5 SE 9 17 5 9 1017.5 1016.7 0.0
26/11:00am 23.9 24.0 15.4 59 5.1 SSW 9 19 5 10 1017.9 1017.1 0.0
26/10:30am 23.1 23.0 15.9 64 4.4 S 11 17 6 9 1018.1 1017.3 0.0
26/10:00am 21.5 21.5 15.3 68 3.7 S 9 17 5 9 1018.2 1017.4 0.0
26/09:30am 21.2 21.6 15.3 69 3.5 SSE 7 13 4 7 1018.2 1017.4 0.0
26/09:00am 20.3 20.3 15.1 72 3.1 SE 9 13 5 7 1018.3 1017.5 0.2
26/08:30am 19.5 19.7 14.7 74 2.8 SSE 7 13 4 7 1018.3 1017.5 0.2
26/08:00am 19.2 19.3 15.5 79 2.2 S 9 15 5 8 1018.2 1017.4 0.2
26/07:30am 18.5 18.4 15.0 80 2.1 S 9 13 5 7 1018.0 1017.2 0.2
26/07:00am 18.0 17.9 14.9 82 1.8 SSE 9 13 5 7 1018.1 1017.3 0.2
26/06:30am 17.8 18.1 15.1 84 1.6 SSE 7 9 4 5 1018.1 1017.3 0.2
26/06:00am 17.6 17.5 15.0 85 1.5 SSE 9 13 5 7 1018.0 1017.2 0.2
26/05:30am 17.6 17.5 15.0 85 1.5 SSE 9 13 5 7 1017.8 1017.0 0.2
26/05:00am 17.5 17.0 15.0 85 1.5 S 11 15 6 8 1017.5 1016.7 0.2
26/04:30am 17.5 16.7 15.0 85 1.5 S 13 17 7 9 1017.4 1016.6 0.2
26/04:00am 17.4 16.5 14.9 85 1.5 S 13 17 7 9 1017.4 1016.6 0.2
26/03:30am 17.4 16.2 15.0 86 1.4 S 15 20 8 11 1017.4 1016.6 0.2
26/03:00am 17.3 16.0 14.9 86 1.4 S 15 20 8 11 1017.5 1016.7 0.2
26/02:30am 17.2 16.3 14.8 86 1.4 S 13 19 7 10 1017.6 1016.8 0.2
26/02:00am 17.0 15.3 14.8 87 1.3 S 17 22 9 12 1017.8 1017.0 0.2
26/01:30am 17.1 15.8 14.7 86 1.4 S 15 20 8 11 1017.9 1017.1 0.2
26/01:00am 17.3 15.7 14.9 86 1.4 S 17 22 9 12 1018.1 1017.3 0.2
26/12:30am 17.4 16.5 14.9 85 1.5 S 13 17 7 9 1018.4 1017.6 0.2
26/12:00am 17.6 16.3 14.7 83 1.7 S 15 19 8 10 1018.5 1017.7 0.2
 
Date/Time
EDT
Temp
°C
App
Temp
°C
Dew
Point
Rel
Hum
%
Delta-T
°C
Wind Press
QNH
hPa
Press
MSL
hPa
Rain
since 9 am
mm
Dir
 
Spd
km/h
Gust
km/h
Spd
kts
Gust
kts
25/11:30pm 17.8 17.2 14.7 82 1.8 S 11 13 6 7 1018.6 1017.8 0.2
25/11:00pm 18.1 17.6 14.8 81 1.9 S 11 13 6 7 1018.3 1017.5 0.2
25/10:30pm 18.5 17.6 14.8 79 2.2 S 13 17 7 9 1018.4 1017.6 0.2
25/10:00pm 18.9 17.6 14.8 77 2.4 S 15 19 8 10 1018.0 1017.2 0.2
25/09:30pm 19.2 17.6 14.9 76 2.5 S 17 24 9 13 1017.8 1017.0 0.2
25/09:00pm 19.7 17.5 14.9 74 2.8 S 20 24 11 13 1017.3 1016.5 0.2
25/08:30pm 20.2 17.7 15.2 73 3.0 S 22 28 12 15 1017.0 1016.2 0.2
25/08:00pm 21.0 18.3 15.5 71 3.3 S 24 32 13 17 1016.5 1015.8 0.2
25/07:30pm 21.9 18.8 15.7 68 3.7 S 26 33 14 18 1016.0 1015.3 0.2
25/07:00pm 22.9 20.0 16.0 65 4.2 S 26 32 14 17 1015.5 1014.8 0.2
25/06:30pm 24.2 21.0 16.2 61 4.9 S 28 33 15 18 1014.9 1014.1 0.2
25/06:00pm 27.4 23.6 5.6 25 11.4 WSW 15 19 8 10 1014.3 1013.5 0.2
25/05:30pm 28.0 24.9 7.3 27 11.2 SW 13 17 7 9 1014.0 1013.2 0.2
25/05:00pm 28.1 24.6 7.4 27 11.2 W 15 20 8 11 1014.2 1013.4 0.2
25/04:30pm 28.6 25.4 9.8 31 10.6 W 17 22 9 12 1014.3 1013.5 0.2
25/04:00pm 29.1 26.5 10.7 32 10.6 W 15 20 8 11 1014.4 1013.6 0.2
25/03:30pm 28.5 25.5 12.0 36 9.7 W 19 28 10 15 1014.3 1013.5 0.2
25/03:00pm 27.9 25.4 12.3 38 9.1 W 17 24 9 13 1014.5 1013.7 0.2
25/02:30pm 27.6 25.5 13.5 41 8.4 WSW 17 24 9 13 1014.7 1013.9 0.2
25/02:00pm 27.6 25.4 14.3 44 8.0 SW 19 26 10 14 1014.8 1014.0 0.2
25/01:30pm 27.9 26.1 14.5 44 8.1 WSW 17 30 9 16 1014.8 1014.0 0.2
25/01:00pm 28.1 27.5 15.7 46 7.7 WSW 13 22 7 12 1015.0 1014.3 0.2
25/12:30pm 27.2 25.9 15.9 50 7.0 WSW 17 24 9 13 1015.2 1014.5 0.2
25/12:00pm 27.1 24.9 14.8 47 7.5 W 20 28 11 15 1015.4 1014.7 0.2
25/11:30am 27.8 25.2 15.8 48 7.4 WSW 24 33 13 18 1015.3 1014.6 0.2
25/11:00am 26.4 24.5 15.1 49 6.9 WSW 19 30 10 16 1015.3 1014.6 0.2
25/10:30am 25.5 23.0 15.2 53 6.3 WSW 22 32 12 17 1015.4 1014.7 0.0
25/10:00am 25.2 22.8 15.5 55 5.9 W 22 32 12 17 1015.0 1014.3 0.0
25/09:30am 25.3 23.4 16.7 59 5.4 W 22 32 12 17 1014.7 1013.9 0.0
25/09:00am 23.8 23.0 16.1 62 4.7 W 15 19 8 10 1014.2 1013.4 6.2

Other Formats:

Comma delimited format used in spreadsheet applications
http://www.bom.gov.au/fwo/IDN60801/IDN60801.95758.axf

JavaScript Object Notation format (JSON) in row-major order
http://www.bom.gov.au/fwo/IDN60801/IDN60801.95758.json